createdAt,value
2018-11-12T00:02:11.920Z,0.70
2018-11-12T00:04:46.118Z,0.77
2018-11-12T00:07:20.427Z,0.80
2018-11-12T00:09:54.519Z,0.60
2018-11-12T00:12:28.580Z,0.80
2018-11-12T00:15:02.759Z,0.80
2018-11-12T00:17:36.852Z,0.67
2018-11-12T00:20:12.532Z,0.60
2018-11-12T00:22:47.094Z,0.80
2018-11-12T00:25:21.329Z,0.70
2018-11-12T00:27:55.528Z,0.70
2018-11-12T00:30:29.638Z,0.77
2018-11-12T00:33:03.665Z,0.90
2018-11-12T00:35:37.461Z,0.90
2018-11-12T00:38:11.492Z,0.90
2018-11-12T00:40:45.777Z,1.00
2018-11-12T00:43:19.894Z,1.10
2018-11-12T00:45:54.024Z,1.00
2018-11-12T00:48:28.173Z,0.80
2018-11-12T00:51:02.294Z,1.00
2018-11-12T00:53:36.263Z,0.80
2018-11-12T00:56:10.500Z,1.00
2018-11-12T00:58:44.578Z,0.80
2018-11-12T01:01:18.612Z,0.73
2018-11-12T01:03:52.693Z,0.87
2018-11-12T01:06:27.153Z,0.70
2018-11-12T01:09:01.009Z,0.90
2018-11-12T01:11:35.153Z,0.60
2018-11-12T01:14:09.172Z,0.70
2018-11-12T01:16:43.403Z,0.60
2018-11-12T01:19:17.599Z,0.67
2018-11-12T01:21:51.812Z,0.67
2018-11-12T01:24:25.688Z,0.73
2018-11-12T01:26:59.776Z,0.73
2018-11-12T01:29:33.929Z,0.70
2018-11-12T01:32:08.088Z,0.60
2018-11-12T01:34:41.989Z,0.80
2018-11-12T01:37:16.037Z,0.57
2018-11-12T01:39:50.088Z,0.60
2018-11-12T01:42:24.330Z,0.60
2018-11-12T01:44:58.476Z,0.57
2018-11-12T01:47:32.773Z,0.50
2018-11-12T01:50:08.492Z,1.00
2018-11-12T01:52:43.549Z,1.07
2018-11-12T01:55:18.737Z,0.60
2018-11-12T01:57:52.787Z,0.57
2018-11-12T02:00:26.803Z,0.53
2018-11-12T02:03:00.828Z,0.60
2018-11-12T02:05:34.982Z,0.77
2018-11-12T02:08:08.946Z,0.60
2018-11-12T02:10:43.024Z,0.80
2018-11-12T02:13:16.873Z,0.60
2018-11-12T02:15:50.892Z,0.50
2018-11-12T02:18:24.898Z,0.70
2018-11-12T02:20:59.144Z,0.87
2018-11-12T02:23:33.333Z,0.80
2018-11-12T02:26:07.595Z,0.70
2018-11-12T02:28:41.630Z,0.77
2018-11-12T02:31:16.022Z,0.80
2018-11-12T02:33:50.273Z,0.80
2018-11-12T02:36:24.363Z,0.90
2018-11-12T02:38:58.504Z,0.80
2018-11-12T02:41:32.433Z,0.60
2018-11-12T02:44:07.284Z,0.77
2018-11-12T02:46:41.232Z,0.80
2018-11-12T02:49:15.449Z,0.90
2018-11-12T02:51:49.468Z,0.70
2018-11-12T02:54:24.098Z,0.77
2018-11-12T02:56:58.153Z,0.90
2018-11-12T02:59:32.426Z,0.80
2018-11-12T03:02:06.887Z,0.80
2018-11-12T03:04:46.119Z,0.80
2018-11-12T03:07:20.611Z,0.70
2018-11-12T03:09:54.917Z,0.60
2018-11-12T03:12:29.057Z,0.70
2018-11-12T03:15:03.235Z,0.83
2018-11-12T03:17:37.442Z,0.70
2018-11-12T03:20:13.216Z,0.70
2018-11-12T03:22:47.469Z,0.50
2018-11-12T03:25:22.149Z,0.60
2018-11-12T03:27:56.164Z,0.80
2018-11-12T03:30:30.090Z,0.80
2018-11-12T03:33:04.537Z,0.60
2018-11-12T03:35:38.704Z,0.70
2018-11-12T03:38:12.939Z,0.90
2018-11-12T03:40:47.145Z,1.00
2018-11-12T03:43:21.393Z,1.10
2018-11-12T03:45:55.362Z,1.17
2018-11-12T03:48:29.262Z,1.00
2018-11-12T03:51:03.249Z,0.90
2018-11-12T03:53:37.702Z,0.87
2018-11-12T03:56:11.657Z,0.90
2018-11-12T03:58:46.007Z,1.00
2018-11-12T04:01:20.314Z,0.90
2018-11-12T04:03:54.608Z,0.80
2018-11-12T04:06:28.999Z,0.90
2018-11-12T04:09:04.745Z,1.17
2018-11-12T04:11:39.772Z,0.80
2018-11-12T04:14:14.075Z,0.60
2018-11-12T04:16:47.990Z,0.90
2018-11-12T04:19:22.052Z,0.73
2018-11-12T04:21:56.093Z,0.73
2018-11-12T04:24:30.514Z,1.00
2018-11-12T04:27:04.642Z,0.40
2018-11-12T04:29:38.542Z,0.43
2018-11-12T04:32:12.489Z,0.60
2018-11-12T04:34:46.504Z,0.77
2018-11-12T04:37:20.782Z,0.47
2018-11-12T04:39:54.723Z,0.60
2018-11-12T04:42:29.002Z,0.70
2018-11-12T04:45:03.527Z,0.60
2018-11-12T04:47:37.595Z,0.50
2018-11-12T04:50:13.902Z,0.50
2018-11-12T04:52:48.138Z,0.67
2018-11-12T04:55:22.948Z,0.50
2018-11-12T04:57:56.780Z,0.37
2018-11-12T05:00:30.937Z,0.50
2018-11-12T05:03:05.142Z,0.50
2018-11-12T05:05:39.324Z,0.50
2018-11-12T05:08:13.234Z,0.50
2018-11-12T05:10:47.458Z,0.50
2018-11-12T05:13:21.387Z,0.40
2018-11-12T05:15:55.204Z,0.50
2018-11-12T05:18:28.997Z,0.50
2018-11-12T05:21:02.925Z,0.60
2018-11-12T05:23:36.855Z,0.60
2018-11-12T05:26:11.222Z,0.50
2018-11-12T05:28:45.308Z,0.60
2018-11-12T05:31:19.815Z,0.60
2018-11-12T05:33:53.900Z,0.70
2018-11-12T05:36:27.959Z,0.90
2018-11-12T05:39:02.148Z,1.00
2018-11-12T05:41:36.436Z,0.97
2018-11-12T05:44:10.469Z,0.90
2018-11-12T05:46:44.634Z,1.40
2018-11-12T05:49:18.598Z,1.03
2018-11-12T05:51:53.282Z,1.17
2018-11-12T05:54:27.367Z,1.20
2018-11-12T05:57:06.960Z,1.43
2018-11-12T05:59:40.954Z,1.70
2018-11-12T06:02:15.039Z,1.20
2018-11-12T06:04:49.097Z,1.20
2018-11-12T06:07:23.013Z,1.20
2018-11-12T06:09:58.180Z,1.37
2018-11-12T06:12:32.398Z,1.20
2018-11-12T06:15:08.030Z,1.40
2018-11-12T06:17:42.883Z,1.60
2018-11-12T06:20:19.863Z,1.30
2018-11-12T06:22:54.294Z,1.23
2018-11-12T06:25:30.129Z,1.10
2018-11-12T06:28:04.592Z,1.10
2018-11-12T06:30:38.562Z,1.20
2018-11-12T06:33:12.713Z,1.07
2018-11-12T06:35:46.628Z,1.20
2018-11-12T06:38:21.116Z,1.30
2018-11-12T06:40:55.248Z,1.37
2018-11-12T06:43:29.240Z,1.17
2018-11-12T06:46:03.228Z,1.30
2018-11-12T06:48:37.118Z,1.10
2018-11-12T06:51:11.187Z,1.20
2018-11-12T06:53:45.362Z,1.30
2018-11-12T06:56:19.380Z,1.40
2018-11-12T06:58:53.517Z,1.30
2018-11-12T07:01:28.242Z,1.17
2018-11-12T07:04:02.384Z,1.10
2018-11-12T07:06:36.597Z,1.30
2018-11-12T07:09:12.193Z,1.60
2018-11-12T07:11:46.200Z,1.90
2018-11-12T07:14:20.043Z,1.77
2018-11-12T07:16:54.059Z,2.00
2018-11-12T07:19:28.153Z,2.90
2018-11-12T07:22:02.585Z,3.27
2018-11-12T07:24:37.033Z,4.00
2018-11-12T07:27:11.338Z,6.23
2018-11-12T07:29:45.512Z,4.80
2018-11-12T07:32:19.510Z,4.10
2018-11-12T07:34:53.478Z,4.30
2018-11-12T07:37:27.705Z,4.47
2018-11-12T07:40:01.769Z,4.57
2018-11-12T07:42:36.223Z,5.30
2018-11-12T07:45:12.688Z,5.50
2018-11-12T07:47:47.714Z,6.37
2018-11-12T07:50:23.143Z,5.50
2018-11-12T07:52:57.208Z,6.43
2018-11-12T07:55:31.269Z,6.60
2018-11-12T07:58:05.411Z,6.77
2018-11-12T08:00:39.361Z,6.83
2018-11-12T08:03:13.627Z,6.70
2018-11-12T08:05:47.633Z,7.27
2018-11-12T08:08:21.581Z,7.47
2018-11-12T08:10:55.404Z,7.70
2018-11-12T08:13:29.575Z,8.37
2018-11-12T08:16:03.666Z,6.87
2018-11-12T08:18:37.580Z,7.33
2018-11-12T08:21:11.505Z,7.50
2018-11-12T08:23:45.627Z,7.53
2018-11-12T08:26:20.203Z,6.47
2018-11-12T08:28:54.252Z,6.23
2018-11-12T08:31:28.169Z,7.10
2018-11-12T08:34:02.490Z,6.50
2018-11-12T08:36:37.309Z,5.90
2018-11-12T08:39:16.336Z,6.23
2018-11-12T08:41:50.109Z,4.87
2018-11-12T08:44:24.366Z,4.30
2018-11-12T08:46:58.565Z,4.20
2018-11-12T08:49:32.542Z,3.77
2018-11-12T08:52:06.652Z,3.50
2018-11-12T08:54:40.993Z,2.90
2018-11-12T08:57:14.867Z,3.00
2018-11-12T08:59:49.044Z,2.83
2018-11-12T09:02:22.932Z,2.90
2018-11-12T09:04:56.849Z,2.70
2018-11-12T09:07:30.915Z,2.70
2018-11-12T09:10:07.931Z,2.43
2018-11-12T09:12:42.365Z,2.63
2018-11-12T09:15:16.388Z,2.50
2018-11-12T09:17:50.593Z,2.53
2018-11-12T09:20:25.710Z,2.92
2018-11-12T09:22:59.592Z,2.50
2018-11-12T09:25:33.638Z,2.52
2018-11-12T09:28:07.918Z,2.42
2018-11-12T09:30:43.031Z,2.37
2018-11-12T09:33:15.783Z,2.40
2018-11-12T09:35:49.796Z,2.17
2018-11-12T09:38:24.165Z,2.20
2018-11-12T09:40:58.404Z,2.22
2018-11-12T09:43:32.358Z,2.00
2018-11-12T09:46:06.371Z,2.27
2018-11-12T09:48:40.431Z,2.50
2018-11-12T09:51:14.468Z,2.02
2018-11-12T09:53:48.607Z,2.15
2018-11-12T09:56:22.778Z,2.10
2018-11-12T09:58:57.014Z,2.00
2018-11-12T10:01:31.161Z,2.10
2018-11-12T10:04:06.273Z,2.33
2018-11-12T10:06:39.497Z,2.08
2018-11-12T10:09:16.023Z,2.47
2018-11-12T10:11:50.534Z,2.10
2018-11-12T10:14:24.700Z,2.55
2018-11-12T10:16:58.868Z,2.25
2018-11-12T10:19:30.220Z,1.98
2018-11-12T10:22:04.510Z,1.80
2018-11-12T10:24:39.144Z,1.87
2018-11-12T10:27:13.064Z,1.67
2018-11-12T10:29:47.191Z,2.20
2018-11-12T10:32:22.207Z,1.87
2018-11-12T10:34:56.498Z,1.90
2018-11-12T10:37:30.868Z,1.95
2018-11-12T10:40:07.168Z,1.85
2018-11-12T10:42:41.347Z,2.00
2018-11-12T10:45:15.543Z,1.75
2018-11-12T10:47:50.841Z,1.80
2018-11-12T10:50:25.439Z,1.72
2018-11-12T10:52:59.652Z,1.50
2018-11-12T10:55:34.138Z,1.60
2018-11-12T10:58:08.468Z,1.60
2018-11-12T11:00:48.136Z,1.50
2018-11-12T11:03:27.389Z,1.55
2018-11-12T11:06:01.469Z,1.50
2018-11-12T11:08:36.468Z,1.50
2018-11-12T11:11:10.474Z,1.47
2018-11-12T11:13:44.568Z,1.55
2018-11-12T11:16:18.373Z,1.42
2018-11-12T11:18:52.425Z,1.25
2018-11-12T11:21:26.294Z,1.10
2018-11-12T11:24:00.322Z,1.60
2018-11-12T11:26:34.380Z,1.65
2018-11-12T11:29:08.725Z,1.40
2018-11-12T11:31:42.954Z,1.57
2018-11-12T11:34:16.997Z,1.10
2018-11-12T11:36:50.976Z,1.50
2018-11-12T11:39:25.858Z,1.32
2018-11-12T11:41:59.952Z,1.40
2018-11-12T11:44:34.203Z,1.17
2018-11-12T11:47:08.092Z,1.25
2018-11-12T11:49:42.232Z,1.90
2018-11-12T11:52:16.186Z,1.30
2018-11-12T11:54:50.360Z,1.37
2018-11-12T11:57:24.571Z,1.20
2018-11-12T11:59:58.684Z,0.90
2018-11-12T12:02:32.880Z,1.05
2018-11-12T12:05:08.513Z,1.02
2018-11-12T12:07:42.414Z,1.00
2018-11-12T12:10:16.802Z,1.07
2018-11-12T12:12:51.489Z,1.20
2018-11-12T12:15:26.291Z,1.20
2018-11-12T12:18:00.654Z,1.25
2018-11-12T12:20:34.734Z,1.20
2018-11-12T12:23:08.719Z,1.67
2018-11-12T12:25:42.708Z,1.32
2018-11-12T12:28:16.523Z,1.37
2018-11-12T12:30:50.573Z,1.30
2018-11-12T12:33:24.603Z,1.42
2018-11-12T12:35:58.691Z,1.35
2018-11-12T12:38:32.525Z,1.40
2018-11-12T12:41:06.404Z,1.40
2018-11-12T12:43:40.683Z,1.30
2018-11-12T12:46:14.459Z,1.30
2018-11-12T12:48:48.434Z,1.27
2018-11-12T12:51:22.689Z,1.32
2018-11-12T12:53:57.260Z,1.40
2018-11-12T12:56:31.576Z,1.30
2018-11-12T12:59:05.497Z,1.40
2018-11-12T13:01:39.684Z,1.20
2018-11-12T13:04:19.174Z,1.30
2018-11-12T13:06:52.967Z,1.32
2018-11-12T13:09:26.871Z,1.45
2018-11-12T13:12:00.804Z,2.10
2018-11-12T13:14:35.236Z,1.22
2018-11-12T13:17:09.044Z,1.40
2018-11-12T13:19:43.259Z,1.37
2018-11-12T13:22:17.259Z,1.20
2018-11-12T13:24:51.334Z,1.50
2018-11-12T13:27:25.512Z,1.32
2018-11-12T13:29:59.553Z,1.17
2018-11-12T13:32:33.699Z,1.32
2018-11-12T13:35:09.727Z,1.30
2018-11-12T13:37:43.865Z,1.30
2018-11-12T13:40:19.984Z,1.30
2018-11-12T13:42:58.561Z,1.50
2018-11-12T13:45:32.495Z,1.30
2018-11-12T13:48:06.673Z,1.50
2018-11-12T13:50:40.697Z,1.20
2018-11-12T13:53:15.145Z,1.40
2018-11-12T13:55:49.114Z,1.20
2018-11-12T13:58:22.999Z,1.40
2018-11-12T14:00:56.897Z,1.30
2018-11-12T14:03:30.889Z,1.32
2018-11-12T14:06:05.094Z,1.30
2018-11-12T14:08:39.054Z,1.62
2018-11-12T14:11:13.219Z,1.60
2018-11-12T14:13:47.326Z,1.50
2018-11-12T14:16:21.294Z,1.45
2018-11-12T14:18:55.254Z,1.50
2018-11-12T14:21:29.796Z,1.60
2018-11-12T14:24:03.955Z,1.50
2018-11-12T14:26:37.909Z,1.60
2018-11-12T14:29:11.958Z,1.70
2018-11-12T14:31:45.989Z,1.60
2018-11-12T14:34:19.835Z,2.02
2018-11-12T14:36:54.004Z,1.80
2018-11-12T14:39:27.949Z,1.98
2018-11-12T14:42:02.268Z,1.82
2018-11-12T14:44:36.596Z,1.65
2018-11-12T14:47:10.919Z,1.70
2018-11-12T14:49:45.099Z,2.90
2018-11-12T14:52:19.305Z,3.70
2018-11-12T14:54:53.747Z,1.90
2018-11-12T14:57:28.016Z,1.85
2018-11-12T15:00:01.984Z,1.52
2018-11-12T15:02:36.187Z,1.80
2018-11-12T15:05:10.420Z,1.87
2018-11-12T15:07:44.332Z,2.10
2018-11-12T15:10:18.656Z,1.67
2018-11-12T15:12:52.800Z,2.22
2018-11-12T15:15:27.107Z,1.90
2018-11-12T15:18:00.921Z,2.05
2018-11-12T15:20:34.987Z,2.00
2018-11-12T15:23:09.170Z,2.22
2018-11-12T15:25:43.530Z,2.08
2018-11-12T15:28:17.418Z,1.75
2018-11-12T15:30:51.581Z,1.72
2018-11-12T15:33:25.542Z,1.70
2018-11-12T15:35:59.487Z,1.82
2018-11-12T15:38:33.448Z,1.80
2018-11-12T15:41:07.438Z,1.92
2018-11-12T15:43:41.517Z,1.98
2018-11-12T15:46:16.027Z,2.12
2018-11-12T15:48:49.998Z,2.10
2018-11-12T15:51:24.133Z,1.62
2018-11-12T15:53:58.310Z,1.70
2018-11-12T15:56:32.678Z,1.70
2018-11-12T15:59:06.790Z,1.72
2018-11-12T16:01:40.983Z,2.00
2018-11-12T16:04:14.928Z,2.30
2018-11-12T16:06:49.594Z,2.75
2018-11-12T16:09:23.519Z,3.00
2018-11-12T16:11:57.732Z,3.00
2018-11-12T16:14:31.991Z,3.22
2018-11-12T16:17:06.146Z,4.25
2018-11-12T16:19:40.580Z,4.17
2018-11-12T16:22:14.641Z,4.83
2018-11-12T16:24:48.801Z,4.95
2018-11-12T16:27:22.915Z,5.40
2018-11-12T16:29:57.808Z,4.97
2018-11-12T16:32:31.785Z,5.53
2018-11-12T16:35:07.678Z,5.20
2018-11-12T16:37:42.112Z,7.03
2018-11-12T16:40:16.418Z,7.83
2018-11-12T16:42:50.766Z,8.68
2018-11-12T16:45:25.078Z,7.97
2018-11-12T16:47:59.002Z,8.70
2018-11-12T16:50:33.423Z,9.80
2018-11-12T16:53:07.633Z,9.90
2018-11-12T16:55:42.003Z,9.58
2018-11-12T16:58:16.050Z,12.78
2018-11-12T17:00:50.098Z,12.80
2018-11-12T17:03:24.214Z,15.48
2018-11-12T17:05:58.594Z,16.85
2018-11-12T17:08:33.240Z,20.90
2018-11-12T17:11:07.385Z,22.73
2018-11-12T17:13:41.455Z,25.10
2018-11-12T17:16:15.836Z,24.55
2018-11-12T17:18:50.134Z,25.90
2018-11-12T17:21:24.698Z,24.43
2018-11-12T17:23:58.870Z,25.57
2018-11-12T17:26:32.942Z,27.33
2018-11-12T17:29:07.294Z,28.53
2018-11-12T17:31:42.240Z,27.93
2018-11-12T17:34:16.410Z,30.17
2018-11-12T17:36:50.568Z,29.50
2018-11-12T17:39:25.058Z,27.67
2018-11-12T17:41:59.215Z,42.90
2018-11-12T17:44:33.592Z,48.03
2018-11-12T17:47:07.788Z,31.30
2018-11-12T17:49:41.722Z,31.53
2018-11-12T17:52:15.954Z,31.73
2018-11-12T17:54:50.205Z,31.70
2018-11-12T17:57:24.911Z,28.37
2018-11-12T17:59:59.151Z,30.63
2018-11-12T18:02:33.447Z,30.67
2018-11-12T18:05:08.574Z,31.30
2018-11-12T18:07:46.168Z,31.83
2018-11-12T18:10:20.183Z,30.17
2018-11-12T18:12:56.395Z,29.73
2018-11-12T18:15:31.380Z,30.47
2018-11-12T18:18:05.929Z,31.20
2018-11-12T18:20:40.196Z,34.07
2018-11-12T18:23:14.520Z,32.47
2018-11-12T18:25:48.586Z,31.80
2018-11-12T18:28:22.979Z,31.30
2018-11-12T18:30:57.327Z,35.17
2018-11-12T18:33:31.844Z,32.63
2018-11-12T18:36:06.191Z,30.70
2018-11-12T18:38:40.733Z,31.93
2018-11-12T18:41:15.543Z,31.97
2018-11-12T18:43:50.455Z,30.50
2018-11-12T18:46:24.588Z,32.23
2018-11-12T18:48:59.002Z,31.00
2018-11-12T18:51:33.181Z,32.10
2018-11-12T18:54:07.824Z,31.10
2018-11-12T18:56:42.368Z,30.93
2018-11-12T18:59:16.688Z,31.13
2018-11-12T19:01:51.110Z,29.50
2018-11-12T19:04:25.397Z,31.23
2018-11-12T19:06:59.664Z,29.87
2018-11-12T19:09:33.826Z,30.53
2018-11-12T19:12:08.376Z,28.20
2018-11-12T19:14:42.792Z,29.57
2018-11-12T19:17:17.011Z,29.83
2018-11-12T19:19:51.218Z,27.47
2018-11-12T19:22:25.537Z,29.10
2018-11-12T19:24:59.683Z,28.13
2018-11-12T19:27:33.869Z,26.33
2018-11-12T19:30:14.788Z,28.40
2018-11-12T19:32:49.213Z,28.67
2018-11-12T19:35:24.928Z,27.27
2018-11-12T19:37:59.505Z,30.67
2018-11-12T19:40:33.763Z,27.57
2018-11-12T19:43:08.239Z,26.37
2018-11-12T19:45:42.783Z,25.50
2018-11-12T19:48:16.988Z,25.30
2018-11-12T19:50:51.277Z,26.13
2018-11-12T19:53:26.866Z,27.77
2018-11-12T19:56:01.008Z,26.30
2018-11-12T19:58:35.117Z,28.43
2018-11-12T20:01:09.774Z,26.30
2018-11-12T20:03:44.035Z,26.33
2018-11-12T20:06:18.133Z,24.80
2018-11-12T20:08:52.693Z,24.67
2018-11-12T20:11:27.199Z,24.60
2018-11-12T20:14:01.241Z,24.40
2018-11-12T20:16:35.625Z,25.77
2018-11-12T20:19:10.007Z,25.83
2018-11-12T20:21:44.759Z,24.53
2018-11-12T20:24:19.571Z,26.40
2018-11-12T20:26:53.901Z,26.17
2018-11-12T20:29:28.975Z,28.23
2018-11-12T20:32:03.506Z,26.57
2018-11-12T20:34:37.827Z,26.90
2018-11-12T20:37:12.412Z,29.43
2018-11-12T20:39:46.762Z,28.63
2018-11-12T20:42:21.087Z,28.67
2018-11-12T20:44:55.354Z,27.90
2018-11-12T20:47:29.705Z,30.33
2018-11-12T20:50:04.536Z,28.53
2018-11-12T20:52:39.015Z,26.97
2018-11-12T20:55:14.708Z,28.73
2018-11-12T20:57:48.939Z,28.43
2018-11-12T21:00:24.763Z,28.03
2018-11-12T21:02:58.902Z,29.90
2018-11-12T21:05:33.537Z,31.63
2018-11-12T21:08:07.973Z,29.23
2018-11-12T21:10:42.180Z,28.67
2018-11-12T21:13:17.021Z,29.40
2018-11-12T21:15:51.801Z,29.43
2018-11-12T21:18:26.084Z,28.73
2018-11-12T21:21:00.917Z,28.17
2018-11-12T21:23:35.633Z,28.07
2018-11-12T21:26:10.098Z,30.70
2018-11-12T21:28:45.032Z,28.43
2018-11-12T21:31:19.492Z,29.93
2018-11-12T21:33:54.425Z,28.43
2018-11-12T21:36:29.016Z,27.07
2018-11-12T21:39:04.394Z,27.27
2018-11-12T21:41:38.586Z,26.87
2018-11-12T21:44:12.872Z,26.23
2018-11-12T21:46:47.067Z,26.73
2018-11-12T21:49:21.064Z,26.53
2018-11-12T21:51:55.107Z,27.60
2018-11-12T21:54:29.418Z,26.50
2018-11-12T21:57:03.413Z,26.90
2018-11-12T21:59:37.917Z,25.63
2018-11-12T22:02:11.934Z,27.67
2018-11-12T22:04:46.101Z,27.60
2018-11-12T22:07:21.019Z,26.33
2018-11-12T22:09:55.044Z,29.73
2018-11-12T22:12:29.114Z,28.70
2018-11-12T22:15:03.581Z,28.67
2018-11-12T22:17:38.065Z,30.70
2018-11-12T22:20:13.521Z,31.27
2018-11-12T22:22:47.959Z,32.37
2018-11-12T22:25:22.547Z,30.47
2018-11-12T22:27:57.114Z,29.20
2018-11-12T22:30:31.539Z,30.73
2018-11-12T22:33:05.858Z,30.67
2018-11-12T22:35:40.149Z,30.23
2018-11-12T22:38:14.204Z,30.50
2018-11-12T22:40:48.521Z,28.63
2018-11-12T22:43:22.620Z,34.77
2018-11-12T22:45:57.095Z,32.87
2018-11-12T22:48:31.362Z,34.50
2018-11-12T22:51:05.463Z,31.87
2018-11-12T22:53:39.752Z,32.73
2018-11-12T22:56:13.972Z,32.93
2018-11-12T22:58:48.099Z,32.43
2018-11-12T23:01:22.560Z,32.50
2018-11-12T23:03:56.524Z,33.67
2018-11-12T23:06:30.688Z,34.37
2018-11-12T23:09:15.346Z,33.57
2018-11-12T23:11:49.453Z,33.17
2018-11-12T23:14:23.608Z,36.00
2018-11-12T23:16:57.750Z,34.40
2018-11-12T23:19:31.846Z,34.40
2018-11-12T23:22:06.067Z,34.30
2018-11-12T23:24:40.112Z,34.30
2018-11-12T23:27:13.949Z,34.13
2018-11-12T23:29:48.530Z,34.47
2018-11-12T23:32:22.662Z,36.50
2018-11-12T23:34:56.410Z,35.43
2018-11-12T23:37:30.797Z,35.20
2018-11-12T23:40:05.715Z,34.40
2018-11-12T23:42:40.045Z,34.10
2018-11-12T23:45:14.213Z,35.90
2018-11-12T23:47:48.360Z,33.93
2018-11-12T23:50:22.553Z,32.73
2018-11-12T23:52:56.808Z,34.20
2018-11-12T23:55:30.510Z,32.13
2018-11-12T23:58:04.712Z,33.33
